Solidat — UBEE — position and weather

sailwx.info

Track history (hours):
 
Tides and Currents Weather Stations Pressure Air Temp Water Temp Dewpoint Dewpoint Depression Visibility Wind Speed Wind Dir Waves Ship Positions

Solidat

Last reported at 2018-Feb-16 05:20 UTC. Time now 2018-Feb-20 21:54 UTC.
Position N 44°39' E 037°26'.

Length 83 m; draft 4.1 m.

Type: Cargo ship. MMSI: 273327300.

Date/timePositionNaut miles runAvg speedWind from/ knotsBaromVisibWave heightAir tempDewpointWater temp
2018-Feb-16 05:20N 44°39' E 037°26'2 6.7
2018-Feb-16 04:59N 44°38' E 037°28'3 6.2
2018-Feb-16 04:31N 44°36' E 037°32'3 6.2
2018-Feb-16 04:01N 44°35' E 037°36'3 6.8
2018-Feb-16 03:31N 44°36' E 037°41'3 6.8
2018-Feb-16 03:00N 44°36' E 037°45'3 6.9
2018-Feb-16 02:31N 44°38' E 037°49'3 6.0
2018-Feb-16 02:01N 44°41' E 037°49'2 4.8
2018-Feb-16 01:30N 44°43' E 037°48'0 0.5
2018-Feb-16 00:59N 44°43' E 037°49'0 0.0
2018-Feb-16 00:29N 44°43' E 037°49'0 0.0
2018-Feb-15 23:59N 44°43' E 037°49'0 0.0
2018-Feb-15 23:29N 44°43' E 037°49'0 0.0
2018-Feb-15 22:59N 44°43' E 037°49'0 0.0
2018-Feb-15 22:29N 44°43' E 037°49'0 0.0
2018-Feb-15 21:59N 44°43' E 037°49'0 0.0
2018-Feb-15 21:29N 44°43' E 037°49'0 0.0
2018-Feb-15 20:59N 44°43' E 037°49'0 0.0
2018-Feb-15 20:29N 44°43' E 037°49'0 0.0
2018-Feb-15 19:59N 44°43' E 037°49'0 0.0
2018-Feb-15 19:29N 44°43' E 037°49'0 0.0
2018-Feb-15 18:59N 44°43' E 037°49'0 0.0
2018-Feb-15 18:29N 44°43' E 037°49'0 0.0
2018-Feb-15 17:59N 44°43' E 037°49'0 0.0
2018-Feb-15 17:29N 44°43' E 037°49'0 0.0
2018-Feb-15 16:59N 44°43' E 037°49'0 0.0
2018-Feb-15 16:29N 44°43' E 037°49'0 0.0
2018-Feb-15 15:59N 44°43' E 037°49'0 0.0
2018-Feb-15 15:29N 44°43' E 037°49'0 0.0
2018-Feb-15 15:00N 44°43' E 037°49'1 3.0
2018-Feb-15 14:30N 44°42' E 037°49'3 5.5
2018-Feb-15 14:00N 44°39' E 037°51'2 4.3
2018-Feb-15 13:31N 44°39' E 037°54'0 0.8
2018-Feb-15 12:58N 44°40' E 037°54'0 0.0
2018-Feb-15 12:28N 44°40' E 037°54'0 0.0
2018-Feb-15 11:58N 44°40' E 037°54'0 0.0
2018-Feb-15 11:28N 44°40' E 037°54'0 0.0
2018-Feb-15 10:58N 44°40' E 037°54'0 0.1
2018-Feb-15 10:28N 44°40' E 037°54'0 0.0
2018-Feb-15 09:58N 44°40' E 037°54'0 0.0
2018-Feb-15 09:28N 44°40' E 037°54'0 0.0
2018-Feb-15 08:58N 44°39' E 037°54'0 0.1
2018-Feb-15 08:28N 44°39' E 037°54'0 0.1
2018-Feb-15 07:58N 44°39' E 037°54'0 0.0
2018-Feb-15 07:28N 44°39' E 037°54'0 0.0
2018-Feb-15 06:58N 44°39' E 037°54'0 0.0
2018-Feb-15 06:25N 44°39' E 037°54'0 0.0
2018-Feb-15 05:58N 44°39' E 037°54'0 0.0
2018-Feb-15 05:28N 44°39' E 037°54'0 0.0
2018-Feb-15 04:58N 44°39' E 037°54'0 0.0
2018-Feb-15 04:28N 44°39' E 037°54'0 0.0
2018-Feb-15 03:58N 44°39' E 037°54'0 0.1
2018-Feb-15 03:28N 44°39' E 037°54'0 0.0
2018-Feb-15 02:58N 44°39' E 037°54'0 0.0
2018-Feb-15 02:25N 44°39' E 037°54'0 0.1
2018-Feb-15 01:58N 44°39' E 037°54'0 0.0
2018-Feb-15 01:28N 44°39' E 037°54'0 0.1
2018-Feb-15 00:58N 44°39' E 037°54'0 0.1
2018-Feb-15 00:28N 44°39' E 037°54'0 0.1
2018-Feb-14 23:58N 44°39' E 037°54'0 0.0
2018-Feb-14 23:28N 44°39' E 037°54'0 0.1
2018-Feb-14 22:58N 44°39' E 037°54'0 0.0
2018-Feb-14 22:28N 44°39' E 037°54'0 0.0
2018-Feb-14 21:58N 44°39' E 037°54'0 0.0
2018-Feb-14 21:28N 44°39' E 037°54'0 0.0
2018-Feb-14 20:58N 44°39' E 037°54'0 0.0
2018-Feb-14 20:28N 44°39' E 037°54'0 0.0
2018-Feb-14 19:58N 44°39' E 037°54'0 0.0
2018-Feb-14 19:28N 44°39' E 037°54'0 0.0
2018-Feb-14 18:58N 44°39' E 037°54'0 0.0
2018-Feb-14 18:28N 44°39' E 037°54'0 0.0
2018-Feb-14 17:58N 44°39' E 037°54'0 0.0
2018-Feb-14 17:28N 44°39' E 037°54'0 0.0
2018-Feb-14 16:58N 44°39' E 037°54'0 0.0
2018-Feb-14 16:28N 44°39' E 037°54'0 0.0
2018-Feb-14 15:58N 44°39' E 037°54'0 0.0
2018-Feb-14 15:28N 44°39' E 037°54'0 0.0
2018-Feb-14 14:58N 44°39' E 037°54'0 0.0
2018-Feb-14 14:28N 44°39' E 037°54'0 0.0
2018-Feb-14 13:58N 44°39' E 037°54'0 0.0
2018-Feb-14 13:28N 44°39' E 037°54'0 0.0
2018-Feb-14 12:58N 44°39' E 037°54'0 0.1
2018-Feb-14 12:28N 44°39' E 037°54'0 0.1
2018-Feb-14 11:59N 44°39' E 037°54'2 3.4
2018-Feb-14 11:31N 44°38' E 037°53'3 5.8
2018-Feb-14 11:01N 44°36' E 037°50'3 5.9
2018-Feb-14 10:31N 44°35' E 037°46'3 6.2
2018-Feb-14 10:00N 44°35' E 037°42'4 6.2
2018-Feb-14 09:24N 44°36' E 037°36'2 5.7
2018-Feb-14 08:58N 44°36' E 037°33'3 6.1
2018-Feb-14 08:30N 44°38' E 037°30'  
2018-Feb-08 21:00N 44°35' E 037°44'3 5.2
2018-Feb-08 20:30N 44°36' E 037°47'3 5.5
2018-Feb-08 20:00N 44°38' E 037°49'2 4.7
2018-Feb-08 19:30N 44°41' E 037°50'2 4.9
2018-Feb-08 19:00N 44°43' E 037°48'1 0.1
2018-Feb-08 10:30N 44°43' E 037°49'2 4.1
2018-Feb-08 10:00N 44°41' E 037°49'3 5.2
2018-Feb-08 09:30N 44°39' E 037°51'2 3.2
2018-Feb-08 09:00N 44°39' E 037°53'0 0.0
2018-Feb-08 01:29N 44°39' E 037°53'0 0.0
2018-Feb-08 00:59N 44°39' E 037°53'0 0.1
2018-Feb-08 00:29N 44°39' E 037°53'0 0.0
2018-Feb-07 23:58N 44°39' E 037°53'0 0.1
2018-Feb-07 23:28N 44°39' E 037°53'0 0.0
2018-Feb-07 22:58N 44°39' E 037°53'0 0.0
2018-Feb-07 22:28N 44°39' E 037°53'0 0.0
2018-Feb-07 21:58N 44°39' E 037°53'0 0.0
2018-Feb-07 21:30N 44°39' E 037°54'0 0.0
2018-Feb-07 09:26N 44°39' E 037°53'0 0.0
2018-Feb-07 08:59N 44°39' E 037°53'0 0.0
2018-Feb-07 08:28N 44°39' E 037°53'0 0.0
2018-Feb-07 07:58N 44°39' E 037°53'0 0.0
2018-Feb-07 07:28N 44°39' E 037°53'0 0.0
2018-Feb-07 07:00N 44°39' E 037°53'0 0.0
2018-Feb-07 06:30N 44°39' E 037°53'0 0.0
2018-Feb-07 06:00N 44°39' E 037°53'0 0.1
2018-Feb-07 05:30N 44°39' E 037°53'0 0.1
2018-Feb-07 05:00N 44°39' E 037°53'0 0.0
2018-Feb-07 04:24N 44°39' E 037°53'0 0.0
2018-Feb-07 03:59N 44°39' E 037°53'0 0.0
2018-Feb-07 03:29N 44°39' E 037°53'0 0.1
2018-Feb-07 02:59N 44°39' E 037°53'0 0.0
2018-Feb-07 02:29N 44°39' E 037°53'0 0.0
2018-Feb-07 01:58N 44°39' E 037°53'0 0.1
2018-Feb-07 01:28N 44°39' E 037°53'0 0.1
2018-Feb-07 01:00N 44°39' E 037°54'0 0.1
2018-Feb-07 00:30N 44°39' E 037°53'0 0.0
2018-Feb-07 00:00N 44°39' E 037°53'0 0.0
2018-Feb-06 23:29N 44°39' E 037°53'0 0.1
2018-Feb-06 22:59N 44°39' E 037°53'0 0.1
2018-Feb-06 22:29N 44°39' E 037°53'0 0.0
2018-Feb-06 21:58N 44°39' E 037°53'0 0.0
2018-Feb-06 21:28N 44°39' E 037°53'0 0.0
2018-Feb-06 20:58N 44°39' E 037°53'0 0.0
2018-Feb-06 20:28N 44°39' E 037°53'0 0.1
2018-Feb-06 19:58N 44°39' E 037°53'0 0.0
2018-Feb-06 19:28N 44°39' E 037°53'0 0.1
2018-Feb-06 18:58N 44°39' E 037°53'0 0.1
2018-Feb-06 18:28N 44°39' E 037°53'0 0.0
2018-Feb-06 17:58N 44°39' E 037°53'0 0.0
2018-Feb-06 17:28N 44°39' E 037°53'0 0.0
2018-Feb-06 16:58N 44°39' E 037°53'0 0.1
2018-Feb-06 16:28N 44°39' E 037°53'0 0.1
2018-Feb-06 15:58N 44°39' E 037°53'0 0.0
2018-Feb-06 15:28N 44°39' E 037°53'0 0.0
2018-Feb-06 14:58N 44°39' E 037°53'0 0.0
2018-Feb-06 14:28N 44°39' E 037°53'0 0.0
2018-Feb-06 13:58N 44°39' E 037°53'0 0.0
2018-Feb-06 13:28N 44°39' E 037°53'0 0.1
2018-Feb-06 12:58N 44°39' E 037°54'0 0.0
2018-Feb-06 12:28N 44°39' E 037°54'0 0.0
2018-Feb-06 11:58N 44°39' E 037°54'0 0.0
2018-Feb-06 11:25N 44°39' E 037°54'0 0.0
2018-Feb-06 10:58N 44°39' E 037°54'0 0.0
2018-Feb-06 10:28N 44°39' E 037°54'0 0.1
2018-Feb-06 09:58N 44°39' E 037°53'0 0.1
2018-Feb-06 09:29N 44°39' E 037°53'0 1.0
2018-Feb-06 09:00N 44°39' E 037°53'3 5.8
2018-Feb-06 08:30N 44°36' E 037°51'6 5.5
2018-Feb-06 07:30N 44°35' E 037°43'6 6.4
2018-Feb-06 06:30N 44°36' E 037°34'3 5.1
2018-Feb-06 05:59N 44°38' E 037°31'3 5.0
2018-Feb-06 05:27N 44°38' E 037°28'  
Track history (hours):
 
Tides and Currents Weather Stations Pressure Air Temp Water Temp Dewpoint Dewpoint Depression Visibility Wind Speed Wind Dir Waves Ship Positions

Solidat

Last reported at 2018-Feb-16 05:20 UTC. Time now 2018-Feb-20 21:54 UTC.
Position N 44°39' E 037°26'.

Length 83 m; draft 4.1 m.

Type: Cargo ship. MMSI: 273327300.

Date/timePositionNaut miles runAvg speedWind from/ knotsBaromVisibWave heightAir tempDewpointWater temp
2018-Feb-16 05:20N 44°39' E 037°26'2 6.7
2018-Feb-16 04:59N 44°38' E 037°28'3 6.2
2018-Feb-16 04:31N 44°36' E 037°32'3 6.2
2018-Feb-16 04:01N 44°35' E 037°36'3 6.8
2018-Feb-16 03:31N 44°36' E 037°41'3 6.8
2018-Feb-16 03:00N 44°36' E 037°45'3 6.9
2018-Feb-16 02:31N 44°38' E 037°49'3 6.0
2018-Feb-16 02:01N 44°41' E 037°49'2 4.8
2018-Feb-16 01:30N 44°43' E 037°48'0 0.5
2018-Feb-16 00:59N 44°43' E 037°49'0 0.0
2018-Feb-16 00:29N 44°43' E 037°49'0 0.0
2018-Feb-15 23:59N 44°43' E 037°49'0 0.0
2018-Feb-15 23:29N 44°43' E 037°49'0 0.0
2018-Feb-15 22:59N 44°43' E 037°49'0 0.0
2018-Feb-15 22:29N 44°43' E 037°49'0 0.0
2018-Feb-15 21:59N 44°43' E 037°49'0 0.0
2018-Feb-15 21:29N 44°43' E 037°49'0 0.0
2018-Feb-15 20:59N 44°43' E 037°49'0 0.0
2018-Feb-15 20:29N 44°43' E 037°49'0 0.0
2018-Feb-15 19:59N 44°43' E 037°49'0 0.0
2018-Feb-15 19:29N 44°43' E 037°49'0 0.0
2018-Feb-15 18:59N 44°43' E 037°49'0 0.0
2018-Feb-15 18:29N 44°43' E 037°49'0 0.0
2018-Feb-15 17:59N 44°43' E 037°49'0 0.0
2018-Feb-15 17:29N 44°43' E 037°49'0 0.0
2018-Feb-15 16:59N 44°43' E 037°49'0 0.0
2018-Feb-15 16:29N 44°43' E 037°49'0 0.0
2018-Feb-15 15:59N 44°43' E 037°49'0 0.0
2018-Feb-15 15:29N 44°43' E 037°49'0 0.0
2018-Feb-15 15:00N 44°43' E 037°49'1 3.0
2018-Feb-15 14:30N 44°42' E 037°49'3 5.5
2018-Feb-15 14:00N 44°39' E 037°51'2 4.3
2018-Feb-15 13:31N 44°39' E 037°54'0 0.8
2018-Feb-15 12:58N 44°40' E 037°54'0 0.0
2018-Feb-15 12:28N 44°40' E 037°54'0 0.0
2018-Feb-15 11:58N 44°40' E 037°54'0 0.0
2018-Feb-15 11:28N 44°40' E 037°54'0 0.0
2018-Feb-15 10:58N 44°40' E 037°54'0 0.1
2018-Feb-15 10:28N 44°40' E 037°54'0 0.0
2018-Feb-15 09:58N 44°40' E 037°54'0 0.0
2018-Feb-15 09:28N 44°40' E 037°54'0 0.0
2018-Feb-15 08:58N 44°39' E 037°54'0 0.1
2018-Feb-15 08:28N 44°39' E 037°54'0 0.1
2018-Feb-15 07:58N 44°39' E 037°54'0 0.0
2018-Feb-15 07:28N 44°39' E 037°54'0 0.0
2018-Feb-15 06:58N 44°39' E 037°54'0 0.0
2018-Feb-15 06:25N 44°39' E 037°54'0 0.0
2018-Feb-15 05:58N 44°39' E 037°54'0 0.0
2018-Feb-15 05:28N 44°39' E 037°54'0 0.0
2018-Feb-15 04:58N 44°39' E 037°54'0 0.0
2018-Feb-15 04:28N 44°39' E 037°54'0 0.0
2018-Feb-15 03:58N 44°39' E 037°54'0 0.1
2018-Feb-15 03:28N 44°39' E 037°54'0 0.0
2018-Feb-15 02:58N 44°39' E 037°54'0 0.0
2018-Feb-15 02:25N 44°39' E 037°54'0 0.1
2018-Feb-15 01:58N 44°39' E 037°54'0 0.0
2018-Feb-15 01:28N 44°39' E 037°54'0 0.1
2018-Feb-15 00:58N 44°39' E 037°54'0 0.1
2018-Feb-15 00:28N 44°39' E 037°54'0 0.1
2018-Feb-14 23:58N 44°39' E 037°54'0 0.0
2018-Feb-14 23:28N 44°39' E 037°54'0 0.1
2018-Feb-14 22:58N 44°39' E 037°54'0 0.0
2018-Feb-14 22:28N 44°39' E 037°54'0 0.0
2018-Feb-14 21:58N 44°39' E 037°54'0 0.0
2018-Feb-14 21:28N 44°39' E 037°54'0 0.0
2018-Feb-14 20:58N 44°39' E 037°54'0 0.0
2018-Feb-14 20:28N 44°39' E 037°54'0 0.0
2018-Feb-14 19:58N 44°39' E 037°54'0 0.0
2018-Feb-14 19:28N 44°39' E 037°54'0 0.0
2018-Feb-14 18:58N 44°39' E 037°54'0 0.0
2018-Feb-14 18:28N 44°39' E 037°54'0 0.0
2018-Feb-14 17:58N 44°39' E 037°54'0 0.0
2018-Feb-14 17:28N 44°39' E 037°54'0 0.0
2018-Feb-14 16:58N 44°39' E 037°54'0 0.0
2018-Feb-14 16:28N 44°39' E 037°54'0 0.0
2018-Feb-14 15:58N 44°39' E 037°54'0 0.0
2018-Feb-14 15:28N 44°39' E 037°54'0 0.0
2018-Feb-14 14:58N 44°39' E 037°54'0 0.0
2018-Feb-14 14:28N 44°39' E 037°54'0 0.0
2018-Feb-14 13:58N 44°39' E 037°54'0 0.0
2018-Feb-14 13:28N 44°39' E 037°54'0 0.0
2018-Feb-14 12:58N 44°39' E 037°54'0 0.1
2018-Feb-14 12:28N 44°39' E 037°54'0 0.1
2018-Feb-14 11:59N 44°39' E 037°54'2 3.4
2018-Feb-14 11:31N 44°38' E 037°53'3 5.8
2018-Feb-14 11:01N 44°36' E 037°50'3 5.9
2018-Feb-14 10:31N 44°35' E 037°46'3 6.2
2018-Feb-14 10:00N 44°35' E 037°42'4 6.2
2018-Feb-14 09:24N 44°36' E 037°36'2 5.7
2018-Feb-14 08:58N 44°36' E 037°33'3 6.1
2018-Feb-14 08:30N 44°38' E 037°30'  
2018-Feb-08 21:00N 44°35' E 037°44'3 5.2
2018-Feb-08 20:30N 44°36' E 037°47'3 5.5
2018-Feb-08 20:00N 44°38' E 037°49'2 4.7
2018-Feb-08 19:30N 44°41' E 037°50'2 4.9
2018-Feb-08 19:00N 44°43' E 037°48'1 0.1
2018-Feb-08 10:30N 44°43' E 037°49'2 4.1
2018-Feb-08 10:00N 44°41' E 037°49'3 5.2
2018-Feb-08 09:30N 44°39' E 037°51'2 3.2
2018-Feb-08 09:00N 44°39' E 037°53'0 0.0
2018-Feb-08 01:29N 44°39' E 037°53'0 0.0
2018-Feb-08 00:59N 44°39' E 037°53'0 0.1
2018-Feb-08 00:29N 44°39' E 037°53'0 0.0
2018-Feb-07 23:58N 44°39' E 037°53'0 0.1
2018-Feb-07 23:28N 44°39' E 037°53'0 0.0
2018-Feb-07 22:58N 44°39' E 037°53'0 0.0
2018-Feb-07 22:28N 44°39' E 037°53'0 0.0
2018-Feb-07 21:58N 44°39' E 037°53'0 0.0
2018-Feb-07 21:30N 44°39' E 037°54'0 0.0
2018-Feb-07 09:26N 44°39' E 037°53'0 0.0
2018-Feb-07 08:59N 44°39' E 037°53'0 0.0
2018-Feb-07 08:28N 44°39' E 037°53'0 0.0
2018-Feb-07 07:58N 44°39' E 037°53'0 0.0
2018-Feb-07 07:28N 44°39' E 037°53'0 0.0
2018-Feb-07 07:00N 44°39' E 037°53'0 0.0
2018-Feb-07 06:30N 44°39' E 037°53'0 0.0
2018-Feb-07 06:00N 44°39' E 037°53'0 0.1
2018-Feb-07 05:30N 44°39' E 037°53'0 0.1
2018-Feb-07 05:00N 44°39' E 037°53'0 0.0
2018-Feb-07 04:24N 44°39' E 037°53'0 0.0
2018-Feb-07 03:59N 44°39' E 037°53'0 0.0
2018-Feb-07 03:29N 44°39' E 037°53'0 0.1
2018-Feb-07 02:59N 44°39' E 037°53'0 0.0
2018-Feb-07 02:29N 44°39' E 037°53'0 0.0
2018-Feb-07 01:58N 44°39' E 037°53'0 0.1
2018-Feb-07 01:28N 44°39' E 037°53'0 0.1
2018-Feb-07 01:00N 44°39' E 037°54'0 0.1
2018-Feb-07 00:30N 44°39' E 037°53'0 0.0
2018-Feb-07 00:00N 44°39' E 037°53'0 0.0
2018-Feb-06 23:29N 44°39' E 037°53'0 0.1
2018-Feb-06 22:59N 44°39' E 037°53'0 0.1
2018-Feb-06 22:29N 44°39' E 037°53'0 0.0
2018-Feb-06 21:58N 44°39' E 037°53'0 0.0
2018-Feb-06 21:28N 44°39' E 037°53'0 0.0
2018-Feb-06 20:58N 44°39' E 037°53'0 0.0
2018-Feb-06 20:28N 44°39' E 037°53'0 0.1
2018-Feb-06 19:58N 44°39' E 037°53'0 0.0
2018-Feb-06 19:28N 44°39' E 037°53'0 0.1
2018-Feb-06 18:58N 44°39' E 037°53'0 0.1
2018-Feb-06 18:28N 44°39' E 037°53'0 0.0
2018-Feb-06 17:58N 44°39' E 037°53'0 0.0
2018-Feb-06 17:28N 44°39' E 037°53'0 0.0
2018-Feb-06 16:58N 44°39' E 037°53'0 0.1
2018-Feb-06 16:28N 44°39' E 037°53'0 0.1
2018-Feb-06 15:58N 44°39' E 037°53'0 0.0
2018-Feb-06 15:28N 44°39' E 037°53'0 0.0
2018-Feb-06 14:58N 44°39' E 037°53'0 0.0
2018-Feb-06 14:28N 44°39' E 037°53'0 0.0
2018-Feb-06 13:58N 44°39' E 037°53'0 0.0
2018-Feb-06 13:28N 44°39' E 037°53'0 0.1
2018-Feb-06 12:58N 44°39' E 037°54'0 0.0
2018-Feb-06 12:28N 44°39' E 037°54'0 0.0
2018-Feb-06 11:58N 44°39' E 037°54'0 0.0
2018-Feb-06 11:25N 44°39' E 037°54'0 0.0
2018-Feb-06 10:58N 44°39' E 037°54'0 0.0
2018-Feb-06 10:28N 44°39' E 037°54'0 0.1
2018-Feb-06 09:58N 44°39' E 037°53'0 0.1
2018-Feb-06 09:29N 44°39' E 037°53'0 1.0
2018-Feb-06 09:00N 44°39' E 037°53'3 5.8
2018-Feb-06 08:30N 44°36' E 037°51'6 5.5
2018-Feb-06 07:30N 44°35' E 037°43'6 6.4
2018-Feb-06 06:30N 44°36' E 037°34'3 5.1
2018-Feb-06 05:59N 44°38' E 037°31'3 5.0
2018-Feb-06 05:27N 44°38' E 037°28'  

Dump ship's entire track history